»·PEaware :: EJA243 KSFO-KLAX

EJA243 :: KSFO-KLAX

FLIGHT INFORMATION

Flight Status: Arrived
Operator:
Netjets Aviation
More flights by this operator :: More flights under this callsign
Pilot: Cullen C. (7783)
Aircraft: BOEING 737-800
(B738)
More flights by this aircraft type
Origin: KSFO San Francisco Intl
United States
Destination: KLAX Los Angeles Intl
United States
More flights between these airports :: More routes between these airports
Route: +SSTIK3 EBAYE BURGL IRNMN1
File this flight plan on PilotEdge
Remarks:
Altitude:
(Current/Filed)
37,000ft
Speed:
(Current/Filed)
396kts
Departed: 21-Dec-17 06:57 PM
Arrived: 21-Dec-17 07:49 PM
Distance/Time
Traveled:
294nm/0:52
Distance/Time
To Go:
Arrived

Flight Plot

Page will automatically refresh every two minutes.

Flight plan parsing failed; only flown route is shown


Map Options




Map Legend


Flown Route
Filed Route
Departure Airport
Arrival Airport
Navaid (VOR, NDB)
Fix

Horizontal Profiles

Position Reports

Time Latitude Longitude Heading Altitude Ground
Speed
21-Dec-17 18:35 37.627164 -122.383576 297 19ft 0kts
21-Dec-17 18:36 37.627164 -122.383576 297 19ft 0kts
21-Dec-17 18:37 37.627164 -122.383576 297 19ft 0kts
21-Dec-17 18:38 37.627164 -122.383576 297 19ft 0kts
21-Dec-17 18:39 37.627164 -122.383576 297 19ft 0kts
21-Dec-17 18:40 37.627164 -122.383576 297 19ft 0kts
21-Dec-17 18:41 37.627164 -122.383576 297 19ft 0kts
21-Dec-17 18:42 37.627164 -122.383576 297 19ft 0kts
21-Dec-17 18:43 37.627164 -122.383576 297 19ft 0kts
21-Dec-17 18:44 37.627164 -122.383576 297 19ft 0kts
21-Dec-17 18:45 37.627164 -122.383576 297 19ft 0kts
21-Dec-17 18:46 37.627164 -122.383576 297 19ft 0kts
21-Dec-17 18:47 37.627164 -122.383576 297 19ft 0kts
21-Dec-17 18:48 37.627164 -122.383576 297 19ft 0kts
21-Dec-17 18:49 37.627164 -122.383576 297 19ft 0kts
21-Dec-17 18:50 37.627164 -122.383576 297 19ft 0kts
21-Dec-17 18:51 37.627164 -122.383576 296 19ft 0kts
21-Dec-17 18:52 37.627164 -122.383576 297 19ft 0kts
21-Dec-17 18:53 37.627211 -122.384271 234 19ft 0kts
21-Dec-17 18:54 37.626905 -122.384541 195 19ft 6kts
21-Dec-17 18:55 37.625897 -122.383769 173 20ft 0kts
21-Dec-17 18:56 37.623640 -122.385096 208 20ft 15kts
21-Dec-17 18:57 37.621195 -122.383917 118 19ft 10kts
21-Dec-17 18:58 37.619848 -122.380686 119 19ft 11kts
21-Dec-17 18:59 37.617305 -122.378612 182 19ft 12kts
21-Dec-17 19:00 37.612668 -122.381347 208 20ft 25kts
21-Dec-17 19:01 37.608560 -122.382501 29 20ft 8kts
21-Dec-17 19:02 37.608791 -122.382348 27 20ft 10kts
21-Dec-17 19:03 37.642409 -122.359043 27 2494ft 186kts
21-Dec-17 19:04 37.678692 -122.390066 268 5607ft 234kts
21-Dec-17 19:05 37.630666 -122.440463 195 9776ft 282kts
21-Dec-17 19:06 37.555928 -122.449905 165 13057ft 341kts
21-Dec-17 19:07 37.459782 -122.448585 157 16756ft 375kts
21-Dec-17 19:08 37.391515 -122.365922 129 20211ft 397kts
21-Dec-17 19:09 37.316210 -122.261633 130 23772ft 425kts
21-Dec-17 19:10 37.236555 -122.151792 129 27143ft 445kts
21-Dec-17 19:11 37.154549 -122.039243 127 30777ft 443kts
21-Dec-17 19:12 37.072452 -121.926894 126 33696ft 446kts
21-Dec-17 19:13 36.989986 -121.814389 126 36321ft 445kts
21-Dec-17 19:14 36.905259 -121.699053 127 37321ft 475kts
21-Dec-17 19:15 36.815806 -121.577746 127 37291ft 512kts
21-Dec-17 19:16 36.720196 -121.448818 127 37289ft 511kts
21-Dec-17 19:17 36.625622 -121.321723 128 37287ft 512kts
21-Dec-17 19:18 36.536001 -121.202519 130 37289ft 513kts
21-Dec-17 19:19 36.440882 -121.073719 127 37291ft 511kts
21-Dec-17 19:20 36.347641 -120.942059 126 37294ft 510kts
21-Dec-17 19:21 36.255102 -120.810841 126 37296ft 510kts
21-Dec-17 19:22 36.162271 -120.678974 126 37276ft 510kts
21-Dec-17 19:23 36.070424 -120.548303 126 37296ft 510kts
21-Dec-17 19:24 35.978521 -120.417338 126 37293ft 510kts
21-Dec-17 19:25 35.886785 -120.286316 126 37286ft 510kts
21-Dec-17 19:26 35.777270 -120.190452 148 37280ft 519kts
21-Dec-17 19:27 35.659977 -120.103067 147 37287ft 518kts
21-Dec-17 19:28 35.538718 -120.011899 147 37267ft 518kts
21-Dec-17 19:29 35.416526 -119.920146 146 37267ft 516kts
21-Dec-17 19:30 35.304092 -119.835702 145 37250ft 497kts
21-Dec-17 19:31 35.190680 -119.732855 139 36717ft 544kts
21-Dec-17 19:32 35.072235 -119.622617 138 36513ft 486kts
21-Dec-17 19:33 34.971892 -119.529271 136 33958ft 432kts
21-Dec-17 19:34 34.876889 -119.441884 136 29355ft 443kts
21-Dec-17 19:35 34.778841 -119.354288 138 26816ft 447kts
21-Dec-17 19:36 34.684863 -119.271222 145 24500ft 453kts
21-Dec-17 19:37 34.586444 -119.186359 139 22317ft 421kts
21-Dec-17 19:38 34.497079 -119.107741 139 20443ft 407kts
21-Dec-17 19:39 34.406885 -119.028286 146 18548ft 400kts
21-Dec-17 19:40 34.319629 -118.952350 139 16489ft 379kts
21-Dec-17 19:41 34.238010 -118.877922 138 14648ft 363kts
21-Dec-17 19:42 34.162800 -118.808702 136 12954ft 327kts
21-Dec-17 19:43 34.096486 -118.736418 134 11488ft 317kts
21-Dec-17 19:44 34.035201 -118.662834 117 10048ft 309kts
21-Dec-17 19:45 34.020651 -118.566153 92 8754ft 292kts
21-Dec-17 19:46 34.012079 -118.477044 92 7551ft 267kts
21-Dec-17 19:47 34.017192 -118.401440 81 6553ft 229kts
21-Dec-17 19:48 34.024640 -118.335365 85 5597ft 225kts
21-Dec-17 19:49 34.027323 -118.279403 86 4609ft 201kts
21-Dec-17 19:50 34.006420 -118.234006 170 3238ft 196kts
21-Dec-17 19:51 33.965836 -118.233103 207 2972ft 175kts
21-Dec-17 19:52 33.947225 -118.271925 270 2125ft 169kts
21-Dec-17 19:53 33.943777 -118.318509 260 1203ft 152kts
21-Dec-17 19:54 33.939370 -118.363576 261 462ft 131kts
21-Dec-17 19:55 33.935855 -118.397440 262 110ft 38kts
21-Dec-17 19:56 33.934693 -118.401948 191 110ft 14kts
21-Dec-17 19:57 33.933868 -118.398170 198 110ft 8kts

Navigation Log

Ident Type
Flight plan parsing failed, navigation log unavailable